sensor_id;sensor_type;location;lat;lon;timestamp;pressure;altitude;pressure_sealevel;temperature;humidity
13553;BME280;6847;48.830;9.116;2023-10-19T00:02:05;96301.47;;;15.24;66.28
13553;BME280;6847;48.830;9.116;2023-10-19T00:04:33;96303.06;;;15.25;66.09
13553;BME280;6847;48.830;9.116;2023-10-19T00:07:02;96299.19;;;15.26;66.11
13553;BME280;6847;48.830;9.116;2023-10-19T00:09:30;96299.97;;;15.27;66.24
13553;BME280;6847;48.830;9.116;2023-10-19T00:12:02;96299.63;;;15.28;65.75
13553;BME280;6847;48.830;9.116;2023-10-19T00:14:28;96294.53;;;15.27;66.19
13553;BME280;6847;48.830;9.116;2023-10-19T00:16:57;96273.44;;;15.11;66.21
13553;BME280;6847;48.830;9.116;2023-10-19T00:19:26;96299.28;;;15.30;66.26
13553;BME280;6847;48.830;9.116;2023-10-19T00:21:59;96287.50;;;15.26;66.24
13553;BME280;6847;48.830;9.116;2023-10-19T00:24:34;96294.72;;;15.34;66.24
13553;BME280;6847;48.830;9.116;2023-10-19T00:27:03;96299.84;;;15.35;66.07
13553;BME280;6847;48.830;9.116;2023-10-19T00:29:40;96299.03;;;15.35;66.09
13553;BME280;6847;48.830;9.116;2023-10-19T00:32:14;96304.94;;;15.37;66.16
13553;BME280;6847;48.830;9.116;2023-10-19T00:34:43;96301.44;;;15.36;66.24
13553;BME280;6847;48.830;9.116;2023-10-19T00:37:19;96303.34;;;15.36;66.12
13553;BME280;6847;48.830;9.116;2023-10-19T00:39:53;96311.09;;;15.34;66.23
13553;BME280;6847;48.830;9.116;2023-10-19T00:42:21;96290.75;;;15.31;66.27
13553;BME280;6847;48.830;9.116;2023-10-19T00:44:52;96277.47;;;15.30;66.35
13553;BME280;6847;48.830;9.116;2023-10-19T00:47:27;96278.16;;;15.27;66.43
13553;BME280;6847;48.830;9.116;2023-10-19T00:50:04;96260.91;;;15.23;66.49
13553;BME280;6847;48.830;9.116;2023-10-19T00:52:33;96250.50;;;15.12;66.40
13553;BME280;6847;48.830;9.116;2023-10-19T00:55:09;96246.28;;;15.15;66.47
13553;BME280;6847;48.830;9.116;2023-10-19T00:57:39;96242.78;;;15.14;66.64
13553;BME280;6847;48.830;9.116;2023-10-19T01:00:09;96229.59;;;15.16;66.70
13553;BME280;6847;48.830;9.116;2023-10-19T01:02:47;96234.34;;;15.19;66.25
13553;BME280;6847;48.830;9.116;2023-10-19T01:05:17;96240.25;;;15.22;66.56
13553;BME280;6847;48.830;9.116;2023-10-19T01:07:53;96242.97;;;15.22;66.52
13553;BME280;6847;48.830;9.116;2023-10-19T01:10:23;96230.47;;;15.21;66.47
13553;BME280;6847;48.830;9.116;2023-10-19T01:12:53;96238.50;;;15.29;66.41
13553;BME280;6847;48.830;9.116;2023-10-19T01:15:21;96235.44;;;15.31;66.28
13553;BME280;6847;48.830;9.116;2023-10-19T01:17:57;96237.91;;;15.36;66.46
13553;BME280;6847;48.830;9.116;2023-10-19T01:20:26;96227.44;;;15.38;66.28
13553;BME280;6847;48.830;9.116;2023-10-19T01:23:15;96233.78;;;15.42;66.34
13553;BME280;6847;48.830;9.116;2023-10-19T01:25:52;96226.50;;;15.46;66.50
13553;BME280;6847;48.830;9.116;2023-10-19T01:28:27;96218.41;;;15.49;66.14
13553;BME280;6847;48.830;9.116;2023-10-19T01:31:07;96217.84;;;15.56;66.42
13553;BME280;6847;48.830;9.116;2023-10-19T01:33:39;96213.72;;;15.62;66.59
13553;BME280;6847;48.830;9.116;2023-10-19T01:36:08;96202.69;;;15.59;66.48
13553;BME280;6847;48.830;9.116;2023-10-19T01:38:42;96222.16;;;15.73;66.17
13553;BME280;6847;48.830;9.116;2023-10-19T01:41:09;96211.78;;;15.78;66.72
13553;BME280;6847;48.830;9.116;2023-10-19T01:43:45;96196.13;;;15.75;66.53
13553;BME280;6847;48.830;9.116;2023-10-19T01:46:13;96210.81;;;15.86;66.50
13553;BME280;6847;48.830;9.116;2023-10-19T01:48:48;96120.22;;;15.34;66.52
13553;BME280;6847;48.830;9.116;2023-10-19T01:51:15;96204.41;;;15.95;66.35
13553;BME280;6847;48.830;9.116;2023-10-19T01:53:44;96201.41;;;16.00;66.39
13553;BME280;6847;48.830;9.116;2023-10-19T01:56:12;96185.72;;;15.97;66.23
13553;BME280;6847;48.830;9.116;2023-10-19T01:58:41;96198.41;;;16.05;66.35
13553;BME280;6847;48.830;9.116;2023-10-19T02:01:09;96186.75;;;16.08;66.35
13553;BME280;6847;48.830;9.116;2023-10-19T02:03:45;96189.09;;;16.06;66.37
13553;BME280;6847;48.830;9.116;2023-10-19T02:06:13;96187.50;;;16.05;66.54
13553;BME280;6847;48.830;9.116;2023-10-19T02:08:48;96184.38;;;16.06;66.57
13553;BME280;6847;48.830;9.116;2023-10-19T02:11:16;96185.19;;;16.07;66.37
13553;BME280;6847;48.830;9.116;2023-10-19T02:13:45;96175.69;;;16.01;66.40
13553;BME280;6847;48.830;9.116;2023-10-19T02:16:14;96186.88;;;16.11;66.45
13553;BME280;6847;48.830;9.116;2023-10-19T02:18:43;96141.88;;;15.89;66.66
13553;BME280;6847;48.830;9.116;2023-10-19T02:21:10;96176.88;;;16.19;66.33
13553;BME280;6847;48.830;9.116;2023-10-19T02:23:40;96169.84;;;16.18;66.44
13553;BME280;6847;48.830;9.116;2023-10-19T02:26:10;96164.56;;;16.25;66.25
13553;BME280;6847;48.830;9.116;2023-10-19T02:28:40;96175.06;;;16.23;66.37
13553;BME280;6847;48.830;9.116;2023-10-19T02:31:10;96163.78;;;16.24;66.17
13553;BME280;6847;48.830;9.116;2023-10-19T02:33:41;96164.47;;;16.21;66.35
13553;BME280;6847;48.830;9.116;2023-10-19T02:36:11;96158.13;;;16.17;66.37
13553;BME280;6847;48.830;9.116;2023-10-19T02:38:39;96154.25;;;16.18;66.75
13553;BME280;6847;48.830;9.116;2023-10-19T02:41:11;96137.63;;;16.08;66.66
13553;BME280;6847;48.830;9.116;2023-10-19T02:43:37;96143.88;;;16.08;66.79
13553;BME280;6847;48.830;9.116;2023-10-19T02:46:07;96157.19;;;16.10;66.68
13553;BME280;6847;48.830;9.116;2023-10-19T02:48:35;96157.88;;;16.07;66.90
13553;BME280;6847;48.830;9.116;2023-10-19T02:51:03;96161.34;;;16.04;66.61
13553;BME280;6847;48.830;9.116;2023-10-19T02:53:39;96153.41;;;15.99;66.60
13553;BME280;6847;48.830;9.116;2023-10-19T02:56:14;96139.84;;;15.86;66.60
13553;BME280;6847;48.830;9.116;2023-10-19T02:58:43;96128.19;;;15.70;66.81
13553;BME280;6847;48.830;9.116;2023-10-19T03:01:15;96142.88;;;15.81;66.88
13553;BME280;6847;48.830;9.116;2023-10-19T03:03:49;96139.44;;;15.84;67.17
13553;BME280;6847;48.830;9.116;2023-10-19T03:06:18;96127.94;;;15.75;67.05
13553;BME280;6847;48.830;9.116;2023-10-19T03:08:46;96137.75;;;15.80;66.94
13553;BME280;6847;48.830;9.116;2023-10-19T03:11:20;96133.78;;;15.77;66.85
13553;BME280;6847;48.830;9.116;2023-10-19T03:13:46;96136.47;;;15.74;67.08
13553;BME280;6847;48.830;9.116;2023-10-19T03:16:15;96128.09;;;15.67;67.10
13553;BME280;6847;48.830;9.116;2023-10-19T03:18:41;96122.56;;;15.63;67.04
13553;BME280;6847;48.830;9.116;2023-10-19T03:21:08;96116.22;;;15.59;67.27
13553;BME280;6847;48.830;9.116;2023-10-19T03:23:35;96120.00;;;15.54;67.08
13553;BME280;6847;48.830;9.116;2023-10-19T03:26:03;96113.75;;;15.54;67.30
13553;BME280;6847;48.830;9.116;2023-10-19T03:28:49;96104.66;;;15.50;67.23
13553;BME280;6847;48.830;9.116;2023-10-19T03:31:21;96089.25;;;15.42;66.96
13553;BME280;6847;48.830;9.116;2023-10-19T03:33:48;96106.69;;;15.53;67.16
13553;BME280;6847;48.830;9.116;2023-10-19T03:36:20;96095.34;;;15.51;67.05
13553;BME280;6847;48.830;9.116;2023-10-19T03:38:47;96109.34;;;15.65;67.06
13553;BME280;6847;48.830;9.116;2023-10-19T03:41:15;96109.78;;;15.67;67.00
13553;BME280;6847;48.830;9.116;2023-10-19T03:43:46;96103.19;;;15.68;66.82
13553;BME280;6847;48.830;9.116;2023-10-19T03:46:15;96085.56;;;15.50;67.06
13553;BME280;6847;48.830;9.116;2023-10-19T03:48:48;96111.66;;;15.63;66.92
13553;BME280;6847;48.830;9.116;2023-10-19T03:51:15;96095.97;;;15.60;67.18
13553;BME280;6847;48.830;9.116;2023-10-19T03:53:44;96097.56;;;15.61;67.08
13553;BME280;6847;48.830;9.116;2023-10-19T03:56:19;96099.25;;;15.66;67.37
13553;BME280;6847;48.830;9.116;2023-10-19T03:58:46;96100.44;;;15.68;67.34
13553;BME280;6847;48.830;9.116;2023-10-19T04:01:17;96062.88;;;15.46;67.13
13553;BME280;6847;48.830;9.116;2023-10-19T04:03:45;96089.53;;;15.68;67.47
13553;BME280;6847;48.830;9.116;2023-10-19T04:06:15;96086.81;;;15.68;67.14
13553;BME280;6847;48.830;9.116;2023-10-19T04:08:46;96084.47;;;15.67;67.13
13553;BME280;6847;48.830;9.116;2023-10-19T04:11:16;96067.31;;;15.66;67.09
13553;BME280;6847;48.830;9.116;2023-10-19T04:13:48;96073.44;;;15.63;66.97
13553;BME280;6847;48.830;9.116;2023-10-19T04:16:20;96070.28;;;15.61;67.38
13553;BME280;6847;48.830;9.116;2023-10-19T04:18:47;96065.72;;;15.65;67.25
13553;BME280;6847;48.830;9.116;2023-10-19T04:21:15;96057.25;;;15.70;67.41
13553;BME280;6847;48.830;9.116;2023-10-19T04:23:45;96060.50;;;15.76;67.16
13553;BME280;6847;48.830;9.116;2023-10-19T04:26:15;96062.94;;;15.81;67.15
13553;BME280;6847;48.830;9.116;2023-10-19T04:28:44;96040.31;;;15.80;67.45
13553;BME280;6847;48.830;9.116;2023-10-19T04:31:22;96060.16;;;15.97;67.40
13553;BME280;6847;48.830;9.116;2023-10-19T04:33:49;96057.88;;;15.99;67.32
13553;BME280;6847;48.830;9.116;2023-10-19T04:36:16;96037.41;;;15.89;67.14
13553;BME280;6847;48.830;9.116;2023-10-19T04:38:47;96036.78;;;15.96;67.38
13553;BME280;6847;48.830;9.116;2023-10-19T04:41:13;96047.16;;;16.06;67.30
13553;BME280;6847;48.830;9.116;2023-10-19T04:43:40;96053.44;;;16.10;67.21
13553;BME280;6847;48.830;9.116;2023-10-19T04:46:10;96048.78;;;16.10;67.11
13553;BME280;6847;48.830;9.116;2023-10-19T04:48:41;96054.59;;;16.09;67.03
13553;BME280;6847;48.830;9.116;2023-10-19T04:51:10;96050.22;;;16.04;67.11
13553;BME280;6847;48.830;9.116;2023-10-19T04:53:37;96053.16;;;15.96;67.07
13553;BME280;6847;48.830;9.116;2023-10-19T04:56:05;96049.03;;;15.86;67.14
13553;BME280;6847;48.830;9.116;2023-10-19T04:58:36;96046.47;;;15.77;67.14
13553;BME280;6847;48.830;9.116;2023-10-19T05:01:03;96044.75;;;15.69;67.29
13553;BME280;6847;48.830;9.116;2023-10-19T05:03:31;96043.00;;;15.61;67.21
13553;BME280;6847;48.830;9.116;2023-10-19T05:05:59;96031.94;;;15.54;67.09
13553;BME280;6847;48.830;9.116;2023-10-19T05:08:29;96036.47;;;15.50;67.30
13553;BME280;6847;48.830;9.116;2023-10-19T05:10:58;96030.16;;;15.46;67.27
13553;BME280;6847;48.830;9.116;2023-10-19T05:13:31;95969.84;;;15.00;66.86
13553;BME280;6847;48.830;9.116;2023-10-19T05:15:58;96033.84;;;15.38;67.03
13553;BME280;6847;48.830;9.116;2023-10-19T05:18:25;96034.56;;;15.35;67.19
13553;BME280;6847;48.830;9.116;2023-10-19T05:20:52;96038.34;;;15.30;67.17
13553;BME280;6847;48.830;9.116;2023-10-19T05:23:23;96038.28;;;15.27;67.03
13553;BME280;6847;48.830;9.116;2023-10-19T05:25:51;96040.81;;;15.19;67.06
13553;BME280;6847;48.830;9.116;2023-10-19T05:28:18;96045.09;;;15.21;67.06
13553;BME280;6847;48.830;9.116;2023-10-19T05:30:47;96048.13;;;15.15;67.02
13553;BME280;6847;48.830;9.116;2023-10-19T05:33:15;95994.91;;;14.74;66.86
13553;BME280;6847;48.830;9.116;2023-10-19T05:35:43;96044.78;;;15.06;67.11
13553;BME280;6847;48.830;9.116;2023-10-19T05:38:11;96045.47;;;15.03;67.11
13553;BME280;6847;48.830;9.116;2023-10-19T05:40:41;96049.31;;;15.02;67.14
13553;BME280;6847;48.830;9.116;2023-10-19T05:43:11;96038.94;;;14.92;67.36
13553;BME280;6847;48.830;9.116;2023-10-19T05:45:38;96044.94;;;14.98;67.04
13553;BME280;6847;48.830;9.116;2023-10-19T05:48:05;96043.78;;;14.99;66.97
13553;BME280;6847;48.830;9.116;2023-10-19T05:50:32;96040.69;;;15.00;67.17
13553;BME280;6847;48.830;9.116;2023-10-19T05:52:59;95998.66;;;14.70;67.09
13553;BME280;6847;48.830;9.116;2023-10-19T05:55:27;96047.06;;;15.04;67.23
13553;BME280;6847;48.830;9.116;2023-10-19T05:57:55;96051.97;;;15.14;67.09
13553;BME280;6847;48.830;9.116;2023-10-19T06:00:26;96048.97;;;15.19;67.18
13553;BME280;6847;48.830;9.116;2023-10-19T06:02:56;96057.06;;;15.32;67.25
13553;BME280;6847;48.830;9.116;2023-10-19T06:05:24;95979.16;;;14.99;67.47
13553;BME280;6847;48.830;9.116;2023-10-19T06:07:51;96046.69;;;15.53;67.16
13553;BME280;6847;48.830;9.116;2023-10-19T06:10:25;96066.75;;;15.76;67.18
13553;BME280;6847;48.830;9.116;2023-10-19T06:12:53;96069.34;;;15.88;67.06
13553;BME280;6847;48.830;9.116;2023-10-19T06:15:22;95986.94;;;15.48;66.97
13553;BME280;6847;48.830;9.116;2023-10-19T06:17:50;96064.28;;;16.06;67.10
13553;BME280;6847;48.830;9.116;2023-10-19T06:20:18;96038.06;;;16.02;66.90
13553;BME280;6847;48.830;9.116;2023-10-19T06:22:52;96066.28;;;16.25;66.82
13553;BME280;6847;48.830;9.116;2023-10-19T06:25:20;96068.72;;;16.30;66.76
13553;BME280;6847;48.830;9.116;2023-10-19T06:27:48;96029.88;;;16.02;66.88
13553;BME280;6847;48.830;9.116;2023-10-19T06:30:16;96055.19;;;16.18;67.05
13553;BME280;6847;48.830;9.116;2023-10-19T06:33:00;96068.28;;;16.28;67.10
13553;BME280;6847;48.830;9.116;2023-10-19T06:35:28;96062.00;;;16.27;67.02
13553;BME280;6847;48.830;9.116;2023-10-19T06:37:57;96069.41;;;16.27;67.22
13553;BME280;6847;48.830;9.116;2023-10-19T06:40:25;96038.06;;;16.02;66.97
13553;BME280;6847;48.830;9.116;2023-10-19T06:42:54;96076.47;;;16.28;67.11
13553;BME280;6847;48.830;9.116;2023-10-19T06:45:22;96015.75;;;15.96;67.29
13553;BME280;6847;48.830;9.116;2023-10-19T06:47:52;96074.31;;;16.37;67.05
13553;BME280;6847;48.830;9.116;2023-10-19T06:50:20;96070.88;;;16.40;67.01
13553;BME280;6847;48.830;9.116;2023-10-19T06:52:47;96054.94;;;16.42;67.01
13553;BME280;6847;48.830;9.116;2023-10-19T06:55:16;96050.03;;;16.32;66.82
13553;BME280;6847;48.830;9.116;2023-10-19T06:57:47;96059.59;;;16.42;67.14
13553;BME280;6847;48.830;9.116;2023-10-19T07:00:15;96052.63;;;16.44;67.13
13553;BME280;6847;48.830;9.116;2023-10-19T07:02:49;96055.94;;;16.53;66.84
13553;BME280;6847;48.830;9.116;2023-10-19T07:05:21;96026.03;;;16.41;66.70
13553;BME280;6847;48.830;9.116;2023-10-19T07:07:52;96045.72;;;16.50;66.84
13553;BME280;6847;48.830;9.116;2023-10-19T07:10:22;96056.78;;;16.57;66.97
13553;BME280;6847;48.830;9.116;2023-10-19T07:12:51;96056.78;;;16.57;67.01
13553;BME280;6847;48.830;9.116;2023-10-19T07:15:19;96055.19;;;16.56;67.01
13553;BME280;6847;48.830;9.116;2023-10-19T07:17:48;96051.66;;;16.56;67.22
13553;BME280;6847;48.830;9.116;2023-10-19T07:20:16;96043.25;;;16.45;67.16
13553;BME280;6847;48.830;9.116;2023-10-19T07:23:00;96037.88;;;16.49;66.96
13553;BME280;6847;48.830;9.116;2023-10-19T07:25:33;96047.44;;;16.58;67.26
13553;BME280;6847;48.830;9.116;2023-10-19T07:28:08;96001.31;;;16.34;66.97
13553;BME280;6847;48.830;9.116;2023-10-19T07:30:38;96051.63;;;16.72;67.21
13553;BME280;6847;48.830;9.116;2023-10-19T07:33:05;96054.13;;;16.80;66.96
13553;BME280;6847;48.830;9.116;2023-10-19T07:35:34;96039.69;;;16.80;66.96
13553;BME280;6847;48.830;9.116;2023-10-19T07:38:05;96056.03;;;16.99;66.83
13553;BME280;6847;48.830;9.116;2023-10-19T07:40:33;96035.75;;;17.00;66.75
13553;BME280;6847;48.830;9.116;2023-10-19T07:43:00;96029.69;;;17.10;66.40
13553;BME280;6847;48.830;9.116;2023-10-19T07:45:28;96042.97;;;17.34;66.64
13553;BME280;6847;48.830;9.116;2023-10-19T07:48:00;96039.75;;;17.52;66.45
13553;BME280;6847;48.830;9.116;2023-10-19T07:50:32;96042.53;;;17.78;66.19
13553;BME280;6847;48.830;9.116;2023-10-19T07:52:59;96036.22;;;18.00;65.96
13553;BME280;6847;48.830;9.116;2023-10-19T07:55:28;96035.28;;;18.19;65.59
13553;BME280;6847;48.830;9.116;2023-10-19T07:57:57;96030.09;;;18.44;65.52
13553;BME280;6847;48.830;9.116;2023-10-19T08:00:28;96028.88;;;18.71;65.27
13553;BME280;6847;48.830;9.116;2023-10-19T08:02:57;96029.53;;;18.95;64.89
13553;BME280;6847;48.830;9.116;2023-10-19T08:05:24;96037.22;;;19.19;64.78
13553;BME280;6847;48.830;9.116;2023-10-19T08:07:51;96022.28;;;19.61;64.48
13553;BME280;6847;48.830;9.116;2023-10-19T08:10:20;96028.63;;;20.26;63.24
13553;BME280;6847;48.830;9.116;2023-10-19T08:12:54;96031.97;;;20.78;62.66
13553;BME280;6847;48.830;9.116;2023-10-19T08:15:27;95968.34;;;20.97;61.94
13553;BME280;6847;48.830;9.116;2023-10-19T08:17:57;96033.59;;;22.35;60.44
13553;BME280;6847;48.830;9.116;2023-10-19T08:20:26;96047.25;;;23.44;58.79
13553;BME280;6847;48.830;9.116;2023-10-19T08:22:59;96025.84;;;24.44;57.24
13553;BME280;6847;48.830;9.116;2023-10-19T08:25:28;96045.84;;;25.47;56.53
13553;BME280;6847;48.830;9.116;2023-10-19T08:27:57;96050.66;;;26.39;55.82
13553;BME280;6847;48.830;9.116;2023-10-19T08:30:24;96054.72;;;27.14;55.14
13553;BME280;6847;48.830;9.116;2023-10-19T08:32:53;96057.78;;;27.88;54.39
13553;BME280;6847;48.830;9.116;2023-10-19T08:35:21;96051.56;;;28.45;53.80
13553;BME280;6847;48.830;9.116;2023-10-19T08:37:58;96057.63;;;29.27;53.32
13553;BME280;6847;48.830;9.116;2023-10-19T08:40:28;96066.00;;;29.77;52.94
13553;BME280;6847;48.830;9.116;2023-10-19T08:42:57;96048.03;;;29.91;53.28
13553;BME280;6847;48.830;9.116;2023-10-19T08:45:24;96049.81;;;29.85;54.03
13553;BME280;6847;48.830;9.116;2023-10-19T08:47:55;96033.00;;;29.63;54.82
13553;BME280;6847;48.830;9.116;2023-10-19T08:50:23;96029.84;;;29.36;55.45
13553;BME280;6847;48.830;9.116;2023-10-19T08:52:54;96029.50;;;29.34;55.88
13553;BME280;6847;48.830;9.116;2023-10-19T08:55:22;96028.09;;;29.67;55.00
13553;BME280;6847;48.830;9.116;2023-10-19T08:57:53;96043.13;;;30.42;54.12
13553;BME280;6847;48.830;9.116;2023-10-19T09:00:21;96025.09;;;30.78;53.73
13553;BME280;6847;48.830;9.116;2023-10-19T09:02:51;96027.25;;;30.74;53.99
13553;BME280;6847;48.830;9.116;2023-10-19T09:05:18;96032.34;;;30.97;53.42
13553;BME280;6847;48.830;9.116;2023-10-19T09:07:48;96001.16;;;31.20;53.12
13553;BME280;6847;48.830;9.116;2023-10-19T09:10:20;96016.78;;;31.40;52.96
13553;BME280;6847;48.830;9.116;2023-10-19T09:12:59;95991.63;;;31.40;52.78
13553;BME280;6847;48.830;9.116;2023-10-19T09:15:28;96033.50;;;31.61;52.97
13553;BME280;6847;48.830;9.116;2023-10-19T09:17:57;96044.34;;;31.99;52.58
13553;BME280;6847;48.830;9.116;2023-10-19T09:20:24;96038.53;;;32.43;51.74
13553;BME280;6847;48.830;9.116;2023-10-19T09:22:53;96041.88;;;32.02;52.45
13553;BME280;6847;48.830;9.116;2023-10-19T09:25:20;96036.34;;;31.40;53.29
13553;BME280;6847;48.830;9.116;2023-10-19T09:27:49;96018.06;;;31.17;53.44
13553;BME280;6847;48.830;9.116;2023-10-19T09:30:17;96028.88;;;30.84;54.11
13553;BME280;6847;48.830;9.116;2023-10-19T09:32:47;96024.59;;;30.01;55.17
13553;BME280;6847;48.830;9.116;2023-10-19T09:35:16;96016.47;;;29.31;55.84
13553;BME280;6847;48.830;9.116;2023-10-19T09:37:46;95987.00;;;28.79;56.54
13553;BME280;6847;48.830;9.116;2023-10-19T09:40:33;96005.84;;;28.88;55.35
13553;BME280;6847;48.830;9.116;2023-10-19T09:43:08;96000.22;;;28.75;55.42
13553;BME280;6847;48.830;9.116;2023-10-19T09:45:41;96005.78;;;28.01;55.90
13553;BME280;6847;48.830;9.116;2023-10-19T09:48:14;96002.53;;;27.74;56.06
13553;BME280;6847;48.830;9.116;2023-10-19T09:50:44;96006.25;;;27.83;55.30
13553;BME280;6847;48.830;9.116;2023-10-19T09:53:14;96006.88;;;27.58;55.52
13553;BME280;6847;48.830;9.116;2023-10-19T09:55:41;95988.44;;;27.32;55.71
13553;BME280;6847;48.830;9.116;2023-10-19T09:58:14;95977.97;;;26.84;56.10
13553;BME280;6847;48.830;9.116;2023-10-19T10:00:43;95986.47;;;26.57;56.05
13553;BME280;6847;48.830;9.116;2023-10-19T10:03:46;95990.91;;;26.11;56.69
13553;BME280;6847;48.830;9.116;2023-10-19T10:06:16;95995.88;;;25.54;56.85
13553;BME280;6847;48.830;9.116;2023-10-19T10:08:46;95989.50;;;25.06;57.18
13553;BME280;6847;48.830;9.116;2023-10-19T10:11:20;95970.47;;;24.48;57.53
13553;BME280;6847;48.830;9.116;2023-10-19T10:13:47;95978.63;;;24.28;57.76
13553;BME280;6847;48.830;9.116;2023-10-19T10:16:17;95991.91;;;24.03;57.75
13553;BME280;6847;48.830;9.116;2023-10-19T10:18:47;95989.75;;;23.80;57.67
13553;BME280;6847;48.830;9.116;2023-10-19T10:21:16;95987.09;;;23.69;57.74
13553;BME280;6847;48.830;9.116;2023-10-19T10:23:47;95982.47;;;23.59;57.60
13553;BME280;6847;48.830;9.116;2023-10-19T10:26:15;95973.41;;;23.55;57.38
13553;BME280;6847;48.830;9.116;2023-10-19T10:28:46;95976.56;;;23.53;57.00
13553;BME280;6847;48.830;9.116;2023-10-19T10:31:19;95973.38;;;23.58;56.86
13553;BME280;6847;48.830;9.116;2023-10-19T10:33:49;95982.41;;;23.63;56.57
13553;BME280;6847;48.830;9.116;2023-10-19T10:36:21;95969.75;;;23.69;56.26
13553;BME280;6847;48.830;9.116;2023-10-19T10:38:50;95956.47;;;23.53;56.53
13553;BME280;6847;48.830;9.116;2023-10-19T10:41:21;95966.69;;;23.59;56.28
13553;BME280;6847;48.830;9.116;2023-10-19T10:43:52;95969.84;;;23.58;56.29
13553;BME280;6847;48.830;9.116;2023-10-19T10:46:23;95969.84;;;23.58;56.14
13553;BME280;6847;48.830;9.116;2023-10-19T10:48:54;95973.78;;;23.57;56.22
13553;BME280;6847;48.830;9.116;2023-10-19T10:51:23;95976.94;;;23.59;56.13
13553;BME280;6847;48.830;9.116;2023-10-19T10:53:53;95952.66;;;23.33;56.18
13553;BME280;6847;48.830;9.116;2023-10-19T10:56:22;95987.34;;;23.37;56.26
13553;BME280;6847;48.830;9.116;2023-10-19T10:58:49;95986.69;;;23.19;56.50
13553;BME280;6847;48.830;9.116;2023-10-19T11:01:29;95982.06;;;23.02;56.51
13553;BME280;6847;48.830;9.116;2023-10-19T11:04:08;95985.28;;;22.93;56.63
13553;BME280;6847;48.830;9.116;2023-10-19T11:06:48;95978.22;;;22.85;56.44
13553;BME280;6847;48.830;9.116;2023-10-19T11:09:17;95973.56;;;22.71;56.82
13553;BME280;6847;48.830;9.116;2023-10-19T11:11:45;95983.03;;;22.67;56.54
13553;BME280;6847;48.830;9.116;2023-10-19T11:14:12;95979.94;;;22.58;56.72
13553;BME280;6847;48.830;9.116;2023-10-19T11:16:39;95978.84;;;22.41;56.85
13553;BME280;6847;48.830;9.116;2023-10-19T11:19:12;95973.78;;;22.18;57.04
13553;BME280;6847;48.830;9.116;2023-10-19T11:21:52;95937.31;;;21.71;57.62
13553;BME280;6847;48.830;9.116;2023-10-19T11:24:28;95973.91;;;21.72;58.30
13553;BME280;6847;48.830;9.116;2023-10-19T11:26:59;95986.50;;;21.48;58.61
13553;BME280;6847;48.830;9.116;2023-10-19T11:29:27;95961.31;;;21.18;58.97
13553;BME280;6847;48.830;9.116;2023-10-19T11:31:58;95940.06;;;20.90;59.15
13553;BME280;6847;48.830;9.116;2023-10-19T11:34:28;95925.09;;;20.66;59.18
13553;BME280;6847;48.830;9.116;2023-10-19T11:36:56;95974.63;;;20.80;59.41
13553;BME280;6847;48.830;9.116;2023-10-19T11:39:25;95974.59;;;20.66;59.73
13553;BME280;6847;48.830;9.116;2023-10-19T11:41:52;95963.16;;;20.50;59.94
13553;BME280;6847;48.830;9.116;2023-10-19T11:44:21;95961.09;;;20.29;61.49
13553;BME280;6847;48.830;9.116;2023-10-19T11:46:51;95972.00;;;20.11;63.03
13553;BME280;6847;48.830;9.116;2023-10-19T11:49:18;95975.88;;;19.96;64.17
13553;BME280;6847;48.830;9.116;2023-10-19T11:51:47;95956.13;;;19.80;64.68
13553;BME280;6847;48.830;9.116;2023-10-19T11:54:14;95939.59;;;19.66;65.63
13553;BME280;6847;48.830;9.116;2023-10-19T11:56:42;95883.72;;;19.37;66.07
13553;BME280;6847;48.830;9.116;2023-10-19T11:59:09;95918.41;;;19.63;66.67
13553;BME280;6847;48.830;9.116;2023-10-19T12:01:37;95897.97;;;19.56;66.88
13553;BME280;6847;48.830;9.116;2023-10-19T12:04:07;95911.41;;;19.76;66.98
13553;BME280;6847;48.830;9.116;2023-10-19T12:06:35;95912.22;;;19.80;67.30
13553;BME280;6847;48.830;9.116;2023-10-19T12:09:03;95899.69;;;19.86;67.71
13553;BME280;6847;48.830;9.116;2023-10-19T12:11:40;95907.53;;;19.84;68.01
13553;BME280;6847;48.830;9.116;2023-10-19T12:14:07;95899.66;;;19.75;68.05
13553;BME280;6847;48.830;9.116;2023-10-19T12:16:36;95898.47;;;19.80;68.46
13553;BME280;6847;48.830;9.116;2023-10-19T12:19:08;95884.75;;;19.80;68.60
13553;BME280;6847;48.830;9.116;2023-10-19T12:21:35;95881.63;;;19.78;68.90
13553;BME280;6847;48.830;9.116;2023-10-19T12:24:07;95886.34;;;19.77;69.23
13553;BME280;6847;48.830;9.116;2023-10-19T12:26:35;95882.75;;;19.70;69.14
13553;BME280;6847;48.830;9.116;2023-10-19T12:29:05;95872.91;;;19.62;69.70
13553;BME280;6847;48.830;9.116;2023-10-19T12:31:35;95872.16;;;19.72;69.53
13553;BME280;6847;48.830;9.116;2023-10-19T12:34:05;95864.31;;;19.67;69.77
13553;BME280;6847;48.830;9.116;2023-10-19T12:36:31;95870.59;;;19.71;69.80
13553;BME280;6847;48.830;9.116;2023-10-19T12:39:00;95857.28;;;19.73;69.91
13553;BME280;6847;48.830;9.116;2023-10-19T12:41:28;95868.22;;;19.69;70.14
13553;BME280;6847;48.830;9.116;2023-10-19T12:43:57;95857.22;;;19.62;70.57
13553;BME280;6847;48.830;9.116;2023-10-19T12:46:26;95853.28;;;19.56;70.64
13553;BME280;6847;48.830;9.116;2023-10-19T12:48:55;95861.50;;;19.52;70.90
13553;BME280;6847;48.830;9.116;2023-10-19T12:51:23;95867.34;;;19.51;70.79
13553;BME280;6847;48.830;9.116;2023-10-19T12:53:51;95874.41;;;19.48;70.98
13553;BME280;6847;48.830;9.116;2023-10-19T12:56:18;95883.03;;;19.50;71.18
13553;BME280;6847;48.830;9.116;2023-10-19T12:58:46;95890.88;;;19.52;71.08
13553;BME280;6847;48.830;9.116;2023-10-19T13:01:15;95888.53;;;19.50;71.44
13553;BME280;6847;48.830;9.116;2023-10-19T13:03:46;95890.88;;;19.48;71.56
13553;BME280;6847;48.830;9.116;2023-10-19T13:06:15;95895.59;;;19.48;71.28
13553;BME280;6847;48.830;9.116;2023-10-19T13:08:41;95879.81;;;19.41;71.44
13553;BME280;6847;48.830;9.116;2023-10-19T13:11:08;95894.00;;;19.50;71.51
13553;BME280;6847;48.830;9.116;2023-10-19T13:13:39;95884.94;;;19.43;71.77
13553;BME280;6847;48.830;9.116;2023-10-19T13:16:07;95893.19;;;19.46;71.95
13553;BME280;6847;48.830;9.116;2023-10-19T13:18:34;95885.78;;;19.50;72.10
13553;BME280;6847;48.830;9.116;2023-10-19T13:21:02;95881.13;;;19.58;72.21
13553;BME280;6847;48.830;9.116;2023-10-19T13:23:35;95861.91;;;19.54;71.92
13553;BME280;6847;48.830;9.116;2023-10-19T13:26:04;95871.38;;;19.68;72.31